createdAt,value
2023-05-22T00:00:16.700Z,18.30
2023-05-22T00:02:43.909Z,18.30
2023-05-22T00:05:14.577Z,18.30
2023-05-22T00:07:46.015Z,18.30
2023-05-22T00:10:12.970Z,18.30
2023-05-22T00:12:40.017Z,18.30
2023-05-22T00:15:07.721Z,18.30
2023-05-22T00:17:34.631Z,18.30
2023-05-22T00:20:08.153Z,18.30
2023-05-22T00:22:35.641Z,18.30
2023-05-22T00:25:03.922Z,18.30
2023-05-22T00:27:30.813Z,18.30
2023-05-22T00:29:58.542Z,18.20
2023-05-22T00:32:28.535Z,18.20
2023-05-22T00:34:55.431Z,18.10
2023-05-22T00:37:22.270Z,18.10
2023-05-22T00:39:49.501Z,18.10
2023-05-22T00:42:16.969Z,18.10
2023-05-22T00:44:43.755Z,18.00
2023-05-22T00:47:10.919Z,18.00
2023-05-22T00:49:37.768Z,17.90
2023-05-22T00:52:04.896Z,17.90
2023-05-22T00:54:32.926Z,17.90
2023-05-22T00:57:01.471Z,17.80
2023-05-22T00:59:29.148Z,17.80
2023-05-22T01:01:57.294Z,17.80
2023-05-22T01:04:26.246Z,17.80
2023-05-22T01:06:55.131Z,17.70
2023-05-22T01:09:24.486Z,17.70
2023-05-22T01:11:51.259Z,17.70
2023-05-22T01:14:49.214Z,17.70
2023-05-22T01:17:40.841Z,17.60
2023-05-22T01:20:21.663Z,17.60
2023-05-22T01:22:58.741Z,17.50
2023-05-22T01:25:56.435Z,17.50
2023-05-22T01:28:37.888Z,17.50
2023-05-22T01:31:17.375Z,17.50
2023-05-22T01:33:48.514Z,17.40
2023-05-22T01:36:20.369Z,17.40
2023-05-22T01:38:47.964Z,17.40
2023-05-22T01:41:16.314Z,17.40
2023-05-22T01:43:45.467Z,17.30
2023-05-22T01:46:12.482Z,17.30
2023-05-22T01:48:39.387Z,17.30
2023-05-22T01:51:40.907Z,17.20
2023-05-22T01:54:32.696Z,17.20
2023-05-22T01:57:12.809Z,17.20
2023-05-22T01:59:48.719Z,17.10
2023-05-22T02:02:18.764Z,17.10
2023-05-22T02:05:01.560Z,17.10
2023-05-22T02:07:29.356Z,17.10
2023-05-22T02:09:58.028Z,17.10
2023-05-22T02:12:25.476Z,17.10
2023-05-22T02:14:52.849Z,17.00
2023-05-22T02:17:20.361Z,17.00
2023-05-22T02:19:47.259Z,17.00
2023-05-22T02:22:14.590Z,16.90
2023-05-22T02:24:44.038Z,16.90
2023-05-22T02:27:10.960Z,16.90
2023-05-22T02:29:38.093Z,16.90
2023-05-22T02:32:05.484Z,16.90
2023-05-22T02:34:32.263Z,16.80
2023-05-22T02:37:00.132Z,16.80
2023-05-22T02:39:27.708Z,16.80
2023-05-22T02:41:54.664Z,16.80
2023-05-22T02:44:21.940Z,16.70
2023-05-22T02:46:48.878Z,16.70
2023-05-22T02:49:15.856Z,16.70
2023-05-22T02:51:47.553Z,16.70
2023-05-22T02:54:16.285Z,16.60
2023-05-22T02:56:43.778Z,16.60
2023-05-22T02:59:11.007Z,16.60
2023-05-22T03:01:38.979Z,16.60
2023-05-22T03:04:06.829Z,16.50
2023-05-22T03:06:35.574Z,16.50
2023-05-22T03:09:04.183Z,16.50
2023-05-22T03:11:32.142Z,16.50
2023-05-22T03:13:58.966Z,16.50
2023-05-22T03:16:26.724Z,16.40
2023-05-22T03:19:11.209Z,16.40
2023-05-22T03:21:38.667Z,16.50
2023-05-22T03:24:06.108Z,16.50
2023-05-22T03:26:33.792Z,16.40
2023-05-22T03:29:00.791Z,16.50
2023-05-22T03:31:29.326Z,16.50
2023-05-22T03:33:56.148Z,16.50
2023-05-22T03:36:23.413Z,16.50
2023-05-22T03:38:50.367Z,16.50
2023-05-22T03:41:18.159Z,16.50
2023-05-22T03:43:46.027Z,16.50
2023-05-22T03:46:13.056Z,16.50
2023-05-22T03:48:39.913Z,16.50
2023-05-22T03:51:06.794Z,16.50
2023-05-22T03:53:33.619Z,16.50
2023-05-22T03:56:00.406Z,16.60
2023-05-22T03:58:27.496Z,16.60
2023-05-22T04:00:55.656Z,16.60
2023-05-22T04:03:22.633Z,16.60
2023-05-22T04:05:49.611Z,16.70
2023-05-22T04:08:16.725Z,16.60
2023-05-22T04:10:46.590Z,16.70
2023-05-22T04:13:15.854Z,16.70
2023-05-22T04:15:45.937Z,16.80
2023-05-22T04:18:13.328Z,16.80
2023-05-22T04:20:40.737Z,16.80
2023-05-22T04:23:08.030Z,16.80
2023-05-22T04:25:36.493Z,16.90
2023-05-22T04:28:04.284Z,16.90
2023-05-22T04:30:37.563Z,16.90
2023-05-22T04:33:05.678Z,16.90
2023-05-22T04:35:32.765Z,17.00
2023-05-22T04:38:03.713Z,17.10
2023-05-22T04:40:33.514Z,17.10
2023-05-22T04:43:01.570Z,17.20
2023-05-22T04:45:29.154Z,17.20
2023-05-22T04:47:56.499Z,17.20
2023-05-22T04:50:24.095Z,17.30
2023-05-22T04:52:51.071Z,17.30
2023-05-22T04:55:19.445Z,17.30
2023-05-22T04:57:47.413Z,17.40
2023-05-22T05:00:17.140Z,17.50
2023-05-22T05:02:44.159Z,17.50
2023-05-22T05:05:11.150Z,17.60
2023-05-22T05:07:39.542Z,17.70
2023-05-22T05:10:07.474Z,17.70
2023-05-22T05:12:34.778Z,17.80
2023-05-22T05:15:01.729Z,17.80
2023-05-22T05:17:28.900Z,17.90
2023-05-22T05:19:55.827Z,18.00
2023-05-22T05:22:23.082Z,18.00
2023-05-22T05:24:50.033Z,18.10
2023-05-22T05:27:16.989Z,18.10
2023-05-22T05:29:44.253Z,18.20
2023-05-22T05:32:13.001Z,18.20
2023-05-22T05:34:40.078Z,18.30
2023-05-22T05:37:06.998Z,18.40
2023-05-22T05:39:33.935Z,18.40
2023-05-22T05:42:00.829Z,18.40
2023-05-22T05:44:27.702Z,18.50
2023-05-22T05:46:54.964Z,18.50
2023-05-22T05:49:22.433Z,18.60
2023-05-22T05:51:49.316Z,18.60
2023-05-22T05:54:16.315Z,18.60
2023-05-22T05:56:43.301Z,18.70
2023-05-22T05:59:10.134Z,18.70
2023-05-22T06:01:38.803Z,18.80
2023-05-22T06:04:05.877Z,18.80
2023-05-22T06:06:36.467Z,18.90
2023-05-22T06:09:06.220Z,18.90
2023-05-22T06:11:34.157Z,18.90
2023-05-22T06:14:07.116Z,18.90
2023-05-22T06:16:36.908Z,18.90
2023-05-22T06:19:04.762Z,19.00
2023-05-22T06:21:31.677Z,19.10
2023-05-22T06:23:58.921Z,19.10
2023-05-22T06:26:26.252Z,19.10
2023-05-22T06:28:55.932Z,19.10
2023-05-22T06:31:23.104Z,19.10
2023-05-22T06:33:50.893Z,19.20
2023-05-22T06:36:19.071Z,19.20
2023-05-22T06:38:51.678Z,19.20
2023-05-22T06:41:18.558Z,19.30
2023-05-22T06:43:45.347Z,19.30
2023-05-22T06:46:12.256Z,19.40
2023-05-22T06:48:39.167Z,19.40
2023-05-22T06:51:06.079Z,19.50
2023-05-22T06:53:32.909Z,19.50
2023-05-22T06:55:59.700Z,19.60
2023-05-22T06:58:26.848Z,19.60
2023-05-22T07:00:55.349Z,19.60
2023-05-22T07:03:23.202Z,19.60
2023-05-22T07:05:50.145Z,19.70
2023-05-22T07:08:16.995Z,19.70
2023-05-22T07:10:43.795Z,19.80
2023-05-22T07:13:11.227Z,19.80
2023-05-22T07:15:38.082Z,19.80
2023-05-22T07:18:05.142Z,19.80
2023-05-22T07:20:32.155Z,19.90
2023-05-22T07:22:58.958Z,19.90
2023-05-22T07:25:25.833Z,20.00
2023-05-22T07:27:52.748Z,20.00
2023-05-22T07:30:19.604Z,20.10
2023-05-22T07:32:47.100Z,20.10
2023-05-22T07:35:14.506Z,20.10
2023-05-22T07:37:41.539Z,20.20
2023-05-22T07:40:09.779Z,20.20
2023-05-22T07:42:36.766Z,20.30
2023-05-22T07:45:03.789Z,20.30
2023-05-22T07:47:30.681Z,20.30
2023-05-22T07:49:57.601Z,20.40
2023-05-22T07:52:24.454Z,20.40
2023-05-22T07:54:51.300Z,20.50
2023-05-22T07:57:18.115Z,20.50
2023-05-22T07:59:45.480Z,20.60
2023-05-22T08:02:12.439Z,20.70
2023-05-22T08:04:39.721Z,20.70
2023-05-22T08:07:07.025Z,20.80
2023-05-22T08:09:34.086Z,20.90
2023-05-22T08:12:01.243Z,21.00
2023-05-22T08:14:28.151Z,21.00
2023-05-22T08:17:04.645Z,21.00
2023-05-22T08:19:31.989Z,21.00
2023-05-22T08:21:58.940Z,21.10
2023-05-22T08:24:30.602Z,21.00
2023-05-22T08:27:01.216Z,21.00
2023-05-22T08:29:28.697Z,21.10
2023-05-22T08:31:56.999Z,21.10
2023-05-22T08:34:24.770Z,21.10
2023-05-22T08:36:51.784Z,21.10
2023-05-22T08:39:19.363Z,21.10
2023-05-22T08:41:47.700Z,21.10
2023-05-22T08:44:14.829Z,21.20
2023-05-22T08:46:41.909Z,21.20
2023-05-22T08:49:13.622Z,21.20
2023-05-22T08:51:44.666Z,21.20
2023-05-22T08:54:11.490Z,21.20
2023-05-22T08:56:52.816Z,21.20
2023-05-22T08:59:23.321Z,21.30
2023-05-22T09:01:52.408Z,21.40
2023-05-22T09:04:23.148Z,21.40
2023-05-22T09:06:50.807Z,21.40
2023-05-22T09:09:18.002Z,21.50
2023-05-22T09:11:44.808Z,21.60
2023-05-22T09:14:12.347Z,21.60
2023-05-22T09:16:46.745Z,21.70
2023-05-22T09:19:17.548Z,21.80
2023-05-22T09:21:44.616Z,21.90
2023-05-22T09:24:12.316Z,22.00
2023-05-22T09:26:40.011Z,22.10
2023-05-22T09:29:10.349Z,22.20
2023-05-22T09:31:44.281Z,22.30
2023-05-22T09:34:14.148Z,22.30
2023-05-22T09:36:41.862Z,22.40
2023-05-22T09:39:09.548Z,22.40
2023-05-22T09:41:42.251Z,22.50
2023-05-22T09:44:16.034Z,22.50
2023-05-22T09:46:45.577Z,22.50
2023-05-22T09:49:15.761Z,22.60
2023-05-22T09:51:49.066Z,22.60
2023-05-22T09:54:17.531Z,22.70
2023-05-22T09:56:46.400Z,22.70
2023-05-22T09:59:14.491Z,22.70
2023-05-22T10:01:42.795Z,22.70
2023-05-22T10:04:12.982Z,22.80
2023-05-22T10:06:42.141Z,22.80
2023-05-22T10:09:19.020Z,22.90
2023-05-22T10:11:47.406Z,22.80
2023-05-22T10:14:15.095Z,22.80
2023-05-22T10:16:45.970Z,22.90
2023-05-22T10:19:13.542Z,22.80
2023-05-22T10:21:42.100Z,22.80
2023-05-22T10:24:10.259Z,22.90
2023-05-22T10:26:38.693Z,22.90
2023-05-22T10:29:14.786Z,22.90
2023-05-22T10:31:45.979Z,22.90
2023-05-22T10:34:21.424Z,23.00
2023-05-22T10:37:16.565Z,23.00
2023-05-22T10:39:56.579Z,23.00
2023-05-22T10:42:23.658Z,23.00
2023-05-22T10:44:50.612Z,23.00
2023-05-22T10:47:17.483Z,23.10
2023-05-22T10:49:45.366Z,23.10
2023-05-22T10:52:14.643Z,23.10
2023-05-22T10:54:46.241Z,23.20
2023-05-22T10:57:17.477Z,23.20
2023-05-22T10:59:47.486Z,23.20
2023-05-22T11:02:31.241Z,23.20
2023-05-22T11:05:17.042Z,23.20
2023-05-22T11:07:43.999Z,23.30
2023-05-22T11:10:11.419Z,23.30
2023-05-22T11:12:38.273Z,23.20
2023-05-22T11:15:09.934Z,23.30
2023-05-22T11:17:39.526Z,23.30
2023-05-22T11:20:12.186Z,23.40
2023-05-22T11:22:44.816Z,23.40
2023-05-22T11:25:19.443Z,23.40
2023-05-22T11:27:48.099Z,23.40
2023-05-22T11:30:16.372Z,23.50
2023-05-22T11:32:45.407Z,23.50
2023-05-22T11:35:19.044Z,23.60
2023-05-22T11:37:46.229Z,23.60
2023-05-22T11:40:18.429Z,23.60
2023-05-22T11:42:45.447Z,23.60
2023-05-22T11:45:12.815Z,23.60
2023-05-22T11:47:39.934Z,23.70
2023-05-22T11:50:09.951Z,23.70
2023-05-22T11:52:40.630Z,23.70
2023-05-22T11:55:08.640Z,23.80
2023-05-22T11:57:36.247Z,23.90
2023-05-22T12:00:06.436Z,23.90
2023-05-22T12:02:33.719Z,23.90
2023-05-22T12:05:01.162Z,24.00
2023-05-22T12:07:28.409Z,24.00
2023-05-22T12:09:58.842Z,23.90
2023-05-22T12:12:26.144Z,24.00
2023-05-22T12:14:53.244Z,23.90
2023-05-22T12:17:20.315Z,23.80
2023-05-22T12:19:48.057Z,23.90
2023-05-22T12:22:15.089Z,23.90
2023-05-22T12:24:46.074Z,24.00
2023-05-22T12:27:14.094Z,23.90
2023-05-22T12:29:42.207Z,24.00
2023-05-22T12:32:13.025Z,24.00
2023-05-22T12:34:47.833Z,24.10
2023-05-22T12:37:23.095Z,24.00
2023-05-22T12:40:00.560Z,24.00
2023-05-22T12:42:28.705Z,24.10
2023-05-22T12:44:58.182Z,24.10
2023-05-22T12:47:25.450Z,24.10
2023-05-22T12:49:52.516Z,24.10
2023-05-22T12:52:19.934Z,24.10
2023-05-22T12:54:46.872Z,24.10
2023-05-22T12:57:13.791Z,24.10
2023-05-22T12:59:40.653Z,24.10
2023-05-22T13:02:07.629Z,24.20
2023-05-22T13:04:34.520Z,24.10
2023-05-22T13:07:01.482Z,24.10
2023-05-22T13:09:28.479Z,24.10
2023-05-22T13:11:55.828Z,24.10
2023-05-22T13:14:22.892Z,24.10
2023-05-22T13:16:49.754Z,24.10
2023-05-22T13:19:17.070Z,24.10
2023-05-22T13:21:44.103Z,24.20
2023-05-22T13:24:11.035Z,24.10
2023-05-22T13:26:40.027Z,24.10
2023-05-22T13:29:06.864Z,24.10
2023-05-22T13:31:37.447Z,24.10
2023-05-22T13:34:07.984Z,24.20
2023-05-22T13:36:34.887Z,24.20
2023-05-22T13:39:01.723Z,24.20
2023-05-22T13:41:28.673Z,24.30
2023-05-22T13:43:55.516Z,24.30
2023-05-22T13:46:22.833Z,24.30
2023-05-22T13:48:52.006Z,24.30
2023-05-22T13:51:18.865Z,24.30
2023-05-22T13:53:45.993Z,24.30
2023-05-22T13:56:12.840Z,24.30
2023-05-22T13:58:39.696Z,24.40
2023-05-22T14:01:06.572Z,24.40
2023-05-22T14:03:33.647Z,24.40
2023-05-22T14:06:00.604Z,24.40
2023-05-22T14:08:27.457Z,24.40
2023-05-22T14:10:54.320Z,24.50
2023-05-22T14:13:21.131Z,24.50
2023-05-22T14:15:47.999Z,24.50
2023-05-22T14:18:16.631Z,24.60
2023-05-22T14:20:44.098Z,24.60
2023-05-22T14:23:11.784Z,24.60
2023-05-22T14:25:42.945Z,24.50
2023-05-22T14:28:10.757Z,24.50
2023-05-22T14:30:37.851Z,24.40
2023-05-22T14:33:05.582Z,24.50
2023-05-22T14:35:33.339Z,24.40
2023-05-22T14:38:00.364Z,24.50
2023-05-22T14:40:27.282Z,24.60
2023-05-22T14:42:54.472Z,24.50
2023-05-22T14:45:21.722Z,24.50
2023-05-22T14:47:48.618Z,24.50
2023-05-22T14:50:19.791Z,24.60
2023-05-22T14:52:49.930Z,24.50
2023-05-22T14:55:17.596Z,24.50
2023-05-22T14:57:44.616Z,24.50
2023-05-22T15:00:12.595Z,24.50
2023-05-22T15:02:40.184Z,24.50
2023-05-22T15:05:07.832Z,24.50
2023-05-22T15:07:44.064Z,24.50
2023-05-22T15:10:12.370Z,24.50
2023-05-22T15:12:39.198Z,24.50
2023-05-22T15:15:06.453Z,24.50
2023-05-22T15:17:33.450Z,24.40
2023-05-22T15:20:00.517Z,24.40
2023-05-22T15:22:27.351Z,24.30
2023-05-22T15:25:08.238Z,24.30
2023-05-22T15:27:35.981Z,24.30
2023-05-22T15:30:04.245Z,24.20
2023-05-22T15:32:34.511Z,24.20
2023-05-22T15:35:02.968Z,24.30
2023-05-22T15:37:32.615Z,24.30
2023-05-22T15:40:01.378Z,24.30
2023-05-22T15:42:28.483Z,24.30
2023-05-22T15:44:55.566Z,24.30
2023-05-22T15:47:22.464Z,24.30
2023-05-22T15:49:51.671Z,24.30
2023-05-22T15:52:19.284Z,24.30
2023-05-22T15:54:46.205Z,24.30
2023-05-22T15:57:13.095Z,24.30
2023-05-22T15:59:39.885Z,24.30
2023-05-22T16:02:06.987Z,24.30
2023-05-22T16:04:33.787Z,24.30
2023-05-22T16:07:00.707Z,24.30
2023-05-22T16:09:27.596Z,24.30
2023-05-22T16:11:54.422Z,24.30
2023-05-22T16:14:21.668Z,24.30
2023-05-22T16:16:48.452Z,24.30
2023-05-22T16:19:15.325Z,24.20
2023-05-22T16:21:42.188Z,24.20
2023-05-22T16:24:10.902Z,24.20
2023-05-22T16:26:38.330Z,24.30
2023-05-22T16:29:08.697Z,24.30
2023-05-22T16:31:35.792Z,24.30
2023-05-22T16:34:03.559Z,24.30
2023-05-22T16:36:30.993Z,24.30
2023-05-22T16:39:01.401Z,24.30
2023-05-22T16:41:28.424Z,24.30
2023-05-22T16:43:55.833Z,24.30
2023-05-22T16:46:22.808Z,24.40
2023-05-22T16:48:50.554Z,24.40
2023-05-22T16:51:17.420Z,24.40
2023-05-22T16:53:44.268Z,24.30
2023-05-22T16:56:11.146Z,24.30
2023-05-22T16:58:38.783Z,24.30
2023-05-22T17:01:06.503Z,24.20
2023-05-22T17:03:33.989Z,24.20
2023-05-22T17:06:03.066Z,24.20
2023-05-22T17:08:30.277Z,24.10
2023-05-22T17:10:57.079Z,24.10
2023-05-22T17:13:23.973Z,24.10
2023-05-22T17:15:51.680Z,24.00
2023-05-22T17:18:22.214Z,24.00
2023-05-22T17:20:49.931Z,24.00
2023-05-22T17:23:17.151Z,24.00
2023-05-22T17:25:46.692Z,24.00
2023-05-22T17:28:14.971Z,24.00
2023-05-22T17:30:42.887Z,24.00
2023-05-22T17:33:10.990Z,23.90
2023-05-22T17:35:37.946Z,23.90
2023-05-22T17:38:04.783Z,23.90
2023-05-22T17:40:43.804Z,23.90
2023-05-22T17:43:11.350Z,23.80
2023-05-22T17:45:38.266Z,23.80
2023-05-22T17:48:06.161Z,23.80
2023-05-22T17:50:33.025Z,23.80
2023-05-22T17:53:01.904Z,23.70
2023-05-22T17:55:28.854Z,23.70
2023-05-22T17:57:58.831Z,23.70
2023-05-22T18:00:25.731Z,23.60
2023-05-22T18:02:52.770Z,23.60
2023-05-22T18:05:20.123Z,23.50
2023-05-22T18:07:47.425Z,23.40
2023-05-22T18:10:14.345Z,23.40
2023-05-22T18:12:41.252Z,23.30
2023-05-22T18:15:10.683Z,23.30
2023-05-22T18:17:38.113Z,23.30
2023-05-22T18:20:08.775Z,23.20
2023-05-22T18:22:37.220Z,23.20
2023-05-22T18:25:04.533Z,23.10
2023-05-22T18:27:31.527Z,23.10
2023-05-22T18:29:58.365Z,23.10
2023-05-22T18:32:25.229Z,23.00
2023-05-22T18:34:54.675Z,22.90
2023-05-22T18:37:21.821Z,22.90
2023-05-22T18:39:48.816Z,22.90
2023-05-22T18:42:15.810Z,22.70
2023-05-22T18:44:42.676Z,22.70
2023-05-22T18:47:09.540Z,22.70
2023-05-22T18:49:36.426Z,22.60
2023-05-22T18:52:03.396Z,22.50
2023-05-22T18:54:30.247Z,22.40
2023-05-22T18:56:57.130Z,22.30
2023-05-22T18:59:23.924Z,22.30
2023-05-22T19:01:51.024Z,22.30
2023-05-22T19:04:18.080Z,22.20
2023-05-22T19:06:46.106Z,22.20
2023-05-22T19:09:13.812Z,22.10
2023-05-22T19:11:40.631Z,22.10
2023-05-22T19:14:07.467Z,22.00
2023-05-22T19:16:34.334Z,22.00
2023-05-22T19:19:01.209Z,21.90
2023-05-22T19:21:28.063Z,21.90
2023-05-22T19:23:54.917Z,21.90
2023-05-22T19:26:21.726Z,21.80
2023-05-22T19:28:48.546Z,21.80
2023-05-22T19:31:16.500Z,21.70
2023-05-22T19:33:43.676Z,21.70
2023-05-22T19:36:10.700Z,21.60
2023-05-22T19:38:37.468Z,21.60
2023-05-22T19:41:04.279Z,21.50
2023-05-22T19:43:31.470Z,21.50
2023-05-22T19:45:58.675Z,21.50
2023-05-22T19:48:25.749Z,21.40
2023-05-22T19:50:52.909Z,21.40
2023-05-22T19:53:19.697Z,21.30
2023-05-22T19:55:47.569Z,21.30
2023-05-22T19:58:14.397Z,21.20
2023-05-22T20:00:41.695Z,21.20
2023-05-22T20:03:09.121Z,21.20
2023-05-22T20:05:36.072Z,21.10
2023-05-22T20:08:03.127Z,21.10
2023-05-22T20:10:31.647Z,21.00
2023-05-22T20:12:59.493Z,21.00
2023-05-22T20:15:26.304Z,21.00
2023-05-22T20:17:54.505Z,20.90
2023-05-22T20:20:24.195Z,20.90
2023-05-22T20:22:52.806Z,20.90
2023-05-22T20:25:21.411Z,20.90
2023-05-22T20:27:48.525Z,20.80
2023-05-22T20:30:21.685Z,20.80
2023-05-22T20:32:48.596Z,20.70
2023-05-22T20:35:19.005Z,20.70
2023-05-22T20:37:46.680Z,20.70
2023-05-22T20:40:16.533Z,20.60
2023-05-22T20:42:43.659Z,20.60
2023-05-22T20:45:13.598Z,20.60
2023-05-22T20:47:41.546Z,20.50
2023-05-22T20:50:09.153Z,20.40
2023-05-22T20:52:37.451Z,20.40
2023-05-22T20:55:04.876Z,20.40
2023-05-22T20:57:31.916Z,20.30
2023-05-22T21:00:01.356Z,20.30
2023-05-22T21:02:28.245Z,20.30
2023-05-22T21:04:55.171Z,20.30
2023-05-22T21:07:22.048Z,20.20
2023-05-22T21:09:48.872Z,20.20
2023-05-22T21:12:15.810Z,20.20
2023-05-22T21:14:44.277Z,20.10
2023-05-22T21:17:11.182Z,20.10
2023-05-22T21:19:38.069Z,20.10
2023-05-22T21:22:05.133Z,20.10
2023-05-22T21:24:32.775Z,20.10
2023-05-22T21:26:59.709Z,20.00
2023-05-22T21:29:26.606Z,20.00
2023-05-22T21:31:53.572Z,20.00
2023-05-22T21:34:20.470Z,20.00
2023-05-22T21:36:47.332Z,19.90
2023-05-22T21:39:14.498Z,19.90
2023-05-22T21:41:41.370Z,19.90
2023-05-22T21:44:10.019Z,19.90
2023-05-22T21:46:37.330Z,19.80
2023-05-22T21:49:06.052Z,19.80
2023-05-22T21:51:33.005Z,19.80
2023-05-22T21:53:59.880Z,19.70
2023-05-22T21:56:27.108Z,19.70
2023-05-22T21:58:53.931Z,19.70
2023-05-22T22:01:21.051Z,19.60
2023-05-22T22:03:47.982Z,19.60
2023-05-22T22:06:14.904Z,19.60
2023-05-22T22:08:41.802Z,19.50
2023-05-22T22:11:08.573Z,19.50
2023-05-22T22:13:36.021Z,19.50
2023-05-22T22:16:02.893Z,19.50
2023-05-22T22:18:32.891Z,19.50
2023-05-22T22:21:02.123Z,19.40
2023-05-22T22:23:29.657Z,19.40
2023-05-22T22:25:56.541Z,19.40
2023-05-22T22:28:23.379Z,19.30
2023-05-22T22:30:50.168Z,19.30
2023-05-22T22:33:16.996Z,19.20
2023-05-22T22:35:43.796Z,19.20
2023-05-22T22:38:10.617Z,19.20
2023-05-22T22:40:37.379Z,19.10
2023-05-22T22:43:04.213Z,19.20
2023-05-22T22:45:31.511Z,19.10
2023-05-22T22:47:58.368Z,19.10
2023-05-22T22:50:25.467Z,19.00
2023-05-22T22:52:52.421Z,19.00
2023-05-22T22:55:19.484Z,19.00
2023-05-22T22:57:50.111Z,19.00
2023-05-22T23:00:19.145Z,19.00
2023-05-22T23:02:46.175Z,19.00
2023-05-22T23:05:14.724Z,19.00
2023-05-22T23:07:41.728Z,18.90
2023-05-22T23:10:09.090Z,18.90
2023-05-22T23:12:36.386Z,18.90
2023-05-22T23:15:04.013Z,18.90
2023-05-22T23:17:30.903Z,18.80
2023-05-22T23:19:57.734Z,18.90
2023-05-22T23:22:24.525Z,18.80
2023-05-22T23:24:51.401Z,18.80
2023-05-22T23:27:18.347Z,18.70
2023-05-22T23:29:45.238Z,18.70
2023-05-22T23:32:14.596Z,18.70
2023-05-22T23:34:42.436Z,18.70
2023-05-22T23:37:09.798Z,18.60
2023-05-22T23:39:36.698Z,18.60
2023-05-22T23:42:03.870Z,18.60
2023-05-22T23:44:31.415Z,18.60
2023-05-22T23:46:58.314Z,18.50
2023-05-22T23:49:25.136Z,18.50
2023-05-22T23:51:52.162Z,18.50
2023-05-22T23:54:18.974Z,18.40
2023-05-22T23:56:45.869Z,18.40
2023-05-22T23:59:12.637Z,18.40
